Time;durP1;ratioP1;P1;durP2;ratioP2;P2;SDS_P1;SDS_P2;PMS_P1;PMS_P2;Temp;Humidity;BMP_temperature;BMP_pressure;BME280_temperature;BME280_humidity;BME280_pressure;Samples;Min_cycle;Max_cycle;Signal;HPM_P1;HPM_P2
2024/03/21 00:00:11;;;;;;;112.20;73.90;;;;;;;2.42;100.00;99349.14;109572;1251;64090;-75
2024/03/21 00:02:58;;;;;;;109.80;71.20;;;;;;;2.41;100.00;99349.02;109516;1251;59745;-73
2024/03/21 00:05:26;;;;;;;109.80;72.00;;;;;;;2.36;100.00;99348.27;109620;1251;59750;-74
2024/03/21 00:07:53;;;;;;;112.00;72.60;;;;;;;2.30;100.00;99347.73;109584;1251;67358;-73
2024/03/21 00:10:20;;;;;;;113.60;69.20;;;;;;;2.24;100.00;99346.33;109526;1254;59802;-73
2024/03/21 00:12:47;;;;;;;116.20;75.50;;;;;;;2.19;100.00;99342.42;109495;1251;62697;-72
2024/03/21 00:15:13;;;;;;;121.30;75.20;;;;;;;2.16;100.00;99344.61;109501;1254;60045;-74
2024/03/21 00:17:40;;;;;;;128.10;78.90;;;;;;;2.14;100.00;99341.67;109331;1251;59859;-73
2024/03/21 00:20:10;;;;;;;119.20;78.10;;;;;;;2.12;100.00;99336.98;109571;1251;59896;-73
2024/03/21 00:22:41;;;;;;;116.90;75.50;;;;;;;2.13;100.00;99340.83;109575;1251;61519;-73
2024/03/21 00:25:08;;;;;;;114.20;74.70;;;;;;;2.13;100.00;99338.73;109533;1251;62861;-73
2024/03/21 00:27:36;;;;;;;128.50;84.80;;;;;;;2.14;100.00;99336.05;109524;1255;60066;-73
2024/03/21 00:30:04;;;;;;;127.30;81.00;;;;;;;2.18;100.00;99336.83;109541;1251;59974;-73
2024/03/21 00:32:32;;;;;;;125.80;80.00;;;;;;;2.21;100.00;99336.77;109527;1251;66835;-72
2024/03/21 00:34:58;;;;;;;128.70;83.90;;;;;;;2.21;100.00;99335.01;109547;1251;60125;-74
2024/03/21 00:37:25;;;;;;;167.60;101.10;;;;;;;2.18;100.00;99335.94;109552;1251;62960;-73
2024/03/21 00:39:54;;;;;;;152.40;97.40;;;;;;;2.18;100.00;99335.07;109531;1251;59758;-73
2024/03/21 00:42:21;;;;;;;145.40;94.20;;;;;;;2.17;100.00;99332.82;109529;1251;59819;-73
2024/03/21 00:44:48;;;;;;;127.70;84.10;;;;;;;2.16;100.00;99332.34;107755;1251;1002461;-72
2024/03/21 00:47:15;;;;;;;140.70;91.20;;;;;;;2.14;100.00;99330.11;109607;1251;60368;-73
2024/03/21 00:49:41;;;;;;;147.30;97.50;;;;;;;2.12;100.00;99326.30;109512;1251;60205;-73
2024/03/21 00:52:08;;;;;;;148.80;94.70;;;;;;;2.10;100.00;99322.86;109555;1251;59742;-74
2024/03/21 00:54:34;;;;;;;132.70;85.40;;;;;;;2.06;100.00;99320.14;109536;1251;59770;-72
2024/03/21 00:57:00;;;;;;;135.90;85.40;;;;;;;2.01;100.00;99316.61;109564;1251;60119;-73
2024/03/21 00:59:27;;;;;;;130.60;84.90;;;;;;;1.97;100.00;99308.30;109532;1251;59736;-74
2024/03/21 01:01:54;;;;;;;142.70;94.20;;;;;;;1.95;100.00;99308.20;109549;1251;59901;-73
2024/03/21 01:04:20;;;;;;;147.10;91.60;;;;;;;1.91;100.00;99304.26;109491;1254;59759;-74
2024/03/21 01:06:47;;;;;;;146.10;96.10;;;;;;;1.89;100.00;99300.13;109560;1251;59995;-73
2024/03/21 01:09:14;;;;;;;142.70;94.20;;;;;;;1.86;100.00;99300.89;109554;1250;59713;-73
2024/03/21 01:11:41;;;;;;;119.20;79.80;;;;;;;1.82;100.00;99305.05;109602;1251;60150;-73
2024/03/21 01:14:08;;;;;;;123.60;81.40;;;;;;;1.76;100.00;99305.71;109524;1251;63750;-72
2024/03/21 01:16:35;;;;;;;137.40;85.20;;;;;;;1.71;100.00;99306.02;109500;1251;59746;-74
2024/03/21 01:19:01;;;;;;;134.50;88.00;;;;;;;1.66;100.00;99307.37;109589;1251;59857;-73
2024/03/21 01:21:29;;;;;;;136.40;87.60;;;;;;;1.61;100.00;99308.05;109559;1251;59840;-73
2024/03/21 01:23:56;;;;;;;147.10;88.40;;;;;;;1.56;100.00;99309.05;109525;1251;60045;-73
2024/03/21 01:26:22;;;;;;;148.20;93.80;;;;;;;1.50;100.00;99305.67;109477;1251;62432;-73
2024/03/21 01:28:49;;;;;;;146.90;93.10;;;;;;;1.46;100.00;99302.45;109534;1251;59761;-74
2024/03/21 01:31:16;;;;;;;140.80;91.80;;;;;;;1.43;100.00;99302.17;109595;1251;60086;-72
2024/03/21 01:33:44;;;;;;;145.90;91.20;;;;;;;1.39;100.00;99301.23;109532;1251;66919;-74
2024/03/21 01:36:10;;;;;;;141.30;90.90;;;;;;;1.36;100.00;99300.79;109574;1251;60012;-73
2024/03/21 01:38:37;;;;;;;135.30;90.80;;;;;;;1.33;100.00;99299.64;109581;1251;62608;-73
2024/03/21 01:41:05;;;;;;;137.90;91.80;;;;;;;1.29;100.00;99297.95;109372;1251;60045;-73
2024/03/21 01:43:33;;;;;;;147.90;88.10;;;;;;;1.26;100.00;99294.02;109558;1251;59756;-72
2024/03/21 01:46:09;;;;;;;135.10;89.40;;;;;;;1.22;100.00;99294.48;109591;1251;65618;-74
2024/03/21 01:48:37;;;;;;;142.00;92.40;;;;;;;1.19;100.00;99297.17;109613;1251;60377;-74
2024/03/21 01:51:04;;;;;;;148.10;94.70;;;;;;;1.19;100.00;99297.00;109453;1254;62868;-73
2024/03/21 01:53:32;;;;;;;140.60;96.30;;;;;;;1.21;100.00;99297.48;109581;1251;59817;-73
2024/03/21 01:55:59;;;;;;;139.20;93.50;;;;;;;1.20;100.00;99295.02;109559;1251;59740;-72
2024/03/21 01:58:26;;;;;;;136.30;88.30;;;;;;;1.20;100.00;99289.98;109589;1251;65686;-72
2024/03/21 02:00:52;;;;;;;134.70;92.70;;;;;;;1.17;100.00;99290.40;109586;1251;60111;-73
2024/03/21 02:03:19;;;;;;;135.30;87.40;;;;;;;1.12;100.00;99289.80;109550;1251;60764;-73
2024/03/21 02:05:45;;;;;;;125.40;81.40;;;;;;;1.08;100.00;99289.36;109534;1251;59836;-73
2024/03/21 02:08:11;;;;;;;133.40;87.10;;;;;;;1.03;100.00;99289.14;109605;1251;59768;-72
2024/03/21 02:10:37;;;;;;;134.90;82.10;;;;;;;0.97;100.00;99286.14;109338;1251;60042;-72
2024/03/21 02:13:05;;;;;;;134.40;85.70;;;;;;;0.90;100.00;99284.19;109558;1251;59831;-73
2024/03/21 02:15:32;;;;;;;129.40;84.70;;;;;;;0.83;100.00;99285.94;109612;1251;65324;-72
2024/03/21 02:17:59;;;;;;;130.10;82.80;;;;;;;0.79;100.00;99289.52;109561;1251;60140;-73
2024/03/21 02:20:25;;;;;;;123.00;85.90;;;;;;;0.74;100.00;99287.73;109528;1251;59891;-73
2024/03/21 02:22:52;;;;;;;129.20;87.20;;;;;;;0.68;100.00;99284.70;109542;1251;59786;-73
2024/03/21 02:25:18;;;;;;;130.00;87.00;;;;;;;0.64;100.00;99287.59;109552;1251;60133;-73
2024/03/21 02:27:45;;;;;;;132.80;87.30;;;;;;;0.62;100.00;99291.99;109506;1251;59835;-73
2024/03/21 02:30:11;;;;;;;133.90;89.20;;;;;;;0.61;100.00;99289.75;109562;1251;59788;-73
2024/03/21 02:32:38;;;;;;;132.60;89.10;;;;;;;0.61;100.00;99288.19;109527;1251;59821;-74
2024/03/21 02:35:06;;;;;;;132.30;90.10;;;;;;;0.63;100.00;99287.44;109549;1251;59786;-74
2024/03/21 02:37:32;;;;;;;131.80;88.40;;;;;;;0.65;100.00;99285.11;109565;1251;60170;-74
2024/03/21 02:39:58;;;;;;;135.70;88.00;;;;;;;0.66;100.00;99287.38;109189;1251;60035;-73
2024/03/21 02:42:25;;;;;;;129.60;89.70;;;;;;;0.65;100.00;99284.77;109555;1251;59763;-73
2024/03/21 02:44:52;;;;;;;134.90;88.50;;;;;;;0.64;100.00;99289.51;109582;1251;59853;-73
2024/03/21 02:47:19;;;;;;;125.90;87.90;;;;;;;0.63;100.00;99290.41;109482;1251;65657;-73
2024/03/21 02:49:46;;;;;;;130.50;86.80;;;;;;;0.62;100.00;99296.55;109533;1251;60141;-73
2024/03/21 02:52:12;;;;;;;135.60;88.90;;;;;;;0.60;100.00;99295.90;109479;1251;64074;-73
2024/03/21 02:54:38;;;;;;;136.10;93.00;;;;;;;0.58;100.00;99300.66;109499;1251;59848;-73
2024/03/21 02:57:08;;;;;;;130.00;91.40;;;;;;;0.56;100.00;99300.52;109529;1251;59860;-72
2024/03/21 02:59:35;;;;;;;137.70;95.00;;;;;;;0.55;100.00;99304.40;109531;1251;65526;-73
2024/03/21 03:02:05;;;;;;;141.40;94.70;;;;;;;0.53;100.00;99309.52;109518;1251;60236;-74
2024/03/21 03:04:32;;;;;;;146.50;95.80;;;;;;;0.50;100.00;99308.69;109499;1251;63877;-72
2024/03/21 03:06:59;;;;;;;135.20;89.90;;;;;;;0.48;100.00;99304.02;109471;1251;59746;-72
2024/03/21 03:09:25;;;;;;;134.30;90.20;;;;;;;0.44;100.00;99302.88;109502;1251;59976;-73
2024/03/21 03:11:51;;;;;;;126.00;85.80;;;;;;;0.41;100.00;99300.84;109505;1250;59849;-74
2024/03/21 03:14:18;;;;;;;136.70;91.00;;;;;;;0.38;100.00;99302.46;109521;1251;60093;-73
2024/03/21 03:16:44;;;;;;;134.40;90.80;;;;;;;0.35;100.00;99306.03;108725;1251;1002339;-73
2024/03/21 03:19:10;;;;;;;140.80;94.60;;;;;;;0.33;100.00;99302.92;109464;1251;59754;-72
2024/03/21 03:21:37;;;;;;;139.40;94.30;;;;;;;0.32;100.00;99303.65;109322;1251;60227;-73
2024/03/21 03:24:03;;;;;;;130.70;93.00;;;;;;;0.33;100.00;99303.64;109521;1251;59790;-74
2024/03/21 03:26:30;;;;;;;130.00;91.30;;;;;;;0.33;100.00;99309.04;109548;1251;59857;-73
2024/03/21 03:28:57;;;;;;;129.40;92.30;;;;;;;0.30;100.00;99302.47;109279;1251;60034;-73
2024/03/21 03:31:23;;;;;;;132.60;92.50;;;;;;;0.26;100.00;99305.86;109484;1251;59833;-74
2024/03/21 03:36:34;;;;;;;126.50;88.80;;;;;;;0.20;100.00;99303.88;109337;1250;67761;-73
2024/03/21 03:39:01;;;;;;;132.50;89.30;;;;;;;0.18;100.00;99304.81;109557;1251;60099;-72
2024/03/21 03:41:28;;;;;;;138.30;92.70;;;;;;;0.14;100.00;99307.67;109516;1251;63988;-73
2024/03/21 03:43:54;;;;;;;138.20;94.80;;;;;;;0.12;100.00;99309.30;109487;1251;59794;-74
2024/03/21 03:46:20;;;;;;;132.50;91.80;;;;;;;0.09;100.00;99309.70;109501;1251;59818;-73
2024/03/21 03:48:47;;;;;;;135.10;91.40;;;;;;;0.08;100.00;99310.26;109512;1251;59758;-73
2024/03/21 03:51:13;;;;;;;128.60;91.20;;;;;;;0.05;100.00;99305.75;109499;1251;59759;-74
2024/03/21 03:53:39;;;;;;;135.40;95.20;;;;;;;0.03;100.00;99305.98;109472;1251;60258;-73
2024/03/21 03:56:06;;;;;;;145.30;99.00;;;;;;;-0.00;100.00;99302.02;109398;1251;59942;-73
2024/03/21 03:58:32;;;;;;;137.70;93.20;;;;;;;-0.02;100.00;99300.30;109497;1251;59814;-73
2024/03/21 04:01:00;;;;;;;133.70;94.30;;;;;;;-0.02;100.00;99305.38;109516;1251;59855;-73
2024/03/21 04:03:27;;;;;;;134.30;93.30;;;;;;;-0.05;100.00;99304.91;109496;1250;59781;-73
2024/03/21 04:06:03;;;;;;;161.40;109.90;;;;;;;-0.08;100.00;99307.91;109510;1251;63818;-72
2024/03/21 04:08:30;;;;;;;146.70;99.70;;;;;;;-0.07;100.00;99305.61;109485;1250;59886;-73
2024/03/21 04:10:57;;;;;;;144.70;101.30;;;;;;;-0.07;100.00;99308.95;109508;1251;59848;-74
2024/03/21 04:13:24;;;;;;;151.50;101.10;;;;;;;-0.09;100.00;99306.20;109321;1251;65808;-74
2024/03/21 04:15:55;;;;;;;148.40;102.00;;;;;;;-0.09;100.00;99308.45;109423;1250;60122;-74
2024/03/21 04:18:23;;;;;;;155.50;100.90;;;;;;;-0.08;100.00;99311.77;109353;1251;63801;-74
2024/03/21 04:20:53;;;;;;;143.30;99.10;;;;;;;-0.07;100.00;99319.63;109473;1250;60114;-72
2024/03/21 04:23:19;;;;;;;142.30;97.10;;;;;;;-0.09;100.00;99318.60;109579;1251;59965;-73
2024/03/21 04:25:46;;;;;;;136.80;96.20;;;;;;;-0.12;100.00;99321.45;109516;1250;75066;-73
2024/03/21 04:28:12;;;;;;;135.00;94.10;;;;;;;-0.16;100.00;99319.77;109551;1251;59764;-72
2024/03/21 04:30:39;;;;;;;142.80;96.50;;;;;;;-0.19;100.00;99321.94;109496;1251;60121;-73
2024/03/21 04:33:05;;;;;;;131.70;93.10;;;;;;;-0.23;100.00;99320.77;109483;1251;60123;-73
2024/03/21 04:35:32;;;;;;;142.90;95.90;;;;;;;-0.25;100.00;99325.53;109293;1251;59868;-73
2024/03/21 04:37:59;;;;;;;133.80;95.10;;;;;;;-0.30;100.00;99323.52;109501;1251;59852;-71
2024/03/21 04:40:26;;;;;;;149.20;102.90;;;;;;;-0.35;100.00;99325.70;109546;1251;61418;-73
2024/03/21 04:42:52;;;;;;;155.90;110.40;;;;;;;-0.35;100.00;99325.17;109510;1251;60698;-73
2024/03/21 04:45:20;;;;;;;141.60;104.30;;;;;;;-0.32;100.00;99324.61;108741;1251;1002520;-74
2024/03/21 04:47:47;;;;;;;149.10;105.70;;;;;;;-0.31;100.00;99326.86;109543;1251;59763;-73
2024/03/21 04:50:13;;;;;;;147.70;105.80;;;;;;;-0.30;100.00;99330.84;109598;1251;66542;-74
2024/03/21 04:52:39;;;;;;;140.40;102.10;;;;;;;-0.30;100.00;99333.13;109547;1251;59772;-73
2024/03/21 04:55:06;;;;;;;146.40;104.00;;;;;;;-0.31;100.00;99333.31;109548;1251;59704;-73
2024/03/21 04:57:33;;;;;;;146.40;101.70;;;;;;;-0.31;100.00;99335.92;109181;1251;59842;-74
2024/03/21 04:59:59;;;;;;;142.50;100.50;;;;;;;-0.31;100.00;99341.53;109563;1251;59659;-73
2024/03/21 05:02:25;;;;;;;146.40;104.70;;;;;;;-0.32;100.00;99345.73;109516;1251;60220;-74
2024/03/21 05:04:52;;;;;;;147.30;105.60;;;;;;;-0.33;100.00;99345.56;109572;1251;59856;-74
2024/03/21 05:07:18;;;;;;;145.10;103.00;;;;;;;-0.31;100.00;99343.96;109542;1251;59761;-74
2024/03/21 05:09:45;;;;;;;142.00;101.90;;;;;;;-0.28;100.00;99342.86;109485;1251;60175;-74
2024/03/21 05:12:11;;;;;;;153.40;107.60;;;;;;;-0.24;100.00;99347.34;109568;1251;60076;-73
2024/03/21 05:14:37;;;;;;;146.30;105.50;;;;;;;-0.16;100.00;99351.02;109565;1251;60052;-73
2024/03/21 05:17:04;;;;;;;150.40;109.10;;;;;;;0.09;100.00;99348.98;109550;1251;60005;-73
2024/03/21 05:19:31;;;;;;;144.20;105.30;;;;;;;0.43;100.00;99350.80;109515;1251;59903;-74
2024/03/21 05:21:57;;;;;;;148.80;107.20;;;;;;;0.74;100.00;99353.98;109484;1251;59830;-73
2024/03/21 05:24:23;;;;;;;140.00;102.70;;;;;;;1.02;100.00;99352.32;109527;1251;59849;-74
2024/03/21 05:26:50;;;;;;;131.10;99.80;;;;;;;1.30;100.00;99354.31;109490;1251;59787;-74
2024/03/21 05:29:16;;;;;;;129.50;97.30;;;;;;;1.56;100.00;99354.20;109494;1250;59872;-73
2024/03/21 05:31:42;;;;;;;119.60;92.50;;;;;;;1.80;100.00;99352.04;109504;1251;60162;-72
2024/03/21 05:34:09;;;;;;;114.20;89.20;;;;;;;2.07;100.00;99354.84;109491;1251;59712;-74
2024/03/21 05:36:35;;;;;;;111.80;86.20;;;;;;;2.30;100.00;99347.05;109562;1251;59865;-74
2024/03/21 05:39:03;;;;;;;108.20;82.40;;;;;;;2.51;100.00;99343.28;109548;1251;59782;-74
2024/03/21 05:41:30;;;;;;;101.70;78.90;;;;;;;2.67;100.00;99339.30;109535;1251;60139;-74
2024/03/21 05:43:57;;;;;;;97.10;76.50;;;;;;;2.73;100.00;99337.02;109540;1251;63234;-73
2024/03/21 05:46:26;;;;;;;104.60;79.00;;;;;;;2.93;100.00;99336.09;109506;1251;59772;-74
2024/03/21 05:48:56;;;;;;;115.10;87.40;;;;;;;3.11;100.00;99335.17;109517;1251;59858;-73
2024/03/21 05:51:23;;;;;;;104.60;85.50;;;;;;;3.31;100.00;99328.39;109503;1251;66673;-73
2024/03/21 05:53:50;;;;;;;100.80;79.70;;;;;;;3.50;100.00;99327.61;109528;1251;60360;-73
2024/03/21 05:56:17;;;;;;;104.00;85.80;;;;;;;3.65;100.00;99326.23;109500;1251;62845;-72
2024/03/21 05:58:46;;;;;;;107.50;85.70;;;;;;;3.76;100.00;99327.45;109491;1251;59994;-73
2024/03/21 06:03:44;;;;;;;90.30;72.50;;;;;;;4.05;100.00;99323.09;109562;1251;66993;-72
2024/03/21 06:06:11;;;;;;;93.70;76.00;;;;;;;4.17;100.00;99324.25;109512;1251;61494;-74
2024/03/21 06:08:37;;;;;;;92.00;72.40;;;;;;;4.27;100.00;99325.85;109509;1251;63810;-74
2024/03/21 06:11:04;;;;;;;94.60;71.30;;;;;;;4.33;100.00;99323.86;109499;1251;59753;-73
2024/03/21 06:13:30;;;;;;;91.10;73.00;;;;;;;4.36;100.00;99323.58;109518;1251;59827;-72
2024/03/21 06:15:57;;;;;;;92.10;74.00;;;;;;;4.40;100.00;99323.80;109502;1251;60040;-73
2024/03/21 06:18:23;;;;;;;89.90;72.30;;;;;;;4.45;100.00;99326.45;109572;1250;60044;-73
2024/03/21 06:20:49;;;;;;;92.10;70.50;;;;;;;4.48;100.00;99328.95;109517;1251;59873;-73
2024/03/21 06:23:16;;;;;;;87.90;70.50;;;;;;;4.53;100.00;99325.23;109526;1251;59793;-73
2024/03/21 06:25:42;;;;;;;85.70;68.30;;;;;;;4.60;100.00;99323.23;109490;1251;59818;-73
2024/03/21 06:28:09;;;;;;;84.30;68.60;;;;;;;4.66;100.00;99320.19;109531;1251;59918;-73
2024/03/21 06:30:36;;;;;;;81.80;66.40;;;;;;;4.72;100.00;99322.98;109415;1251;59817;-72
2024/03/21 06:33:02;;;;;;;83.80;64.60;;;;;;;4.74;100.00;99323.58;109494;1251;59901;-73
2024/03/21 06:35:29;;;;;;;89.70;63.50;;;;;;;4.78;100.00;99325.02;109526;1251;59838;-73
2024/03/21 06:37:56;;;;;;;85.80;62.00;;;;;;;4.84;100.00;99325.50;109566;1251;59793;-73
2024/03/21 06:40:24;;;;;;;81.20;62.20;;;;;;;4.92;100.00;99329.23;109541;1251;66860;-73
2024/03/21 06:42:54;;;;;;;86.70;64.90;;;;;;;5.02;100.00;99327.45;109519;1251;60004;-73
2024/03/21 06:45:22;;;;;;;84.20;64.20;;;;;;;5.12;100.00;99328.29;109522;1251;62822;-74
2024/03/21 06:47:50;;;;;;;81.20;60.00;;;;;;;5.24;100.00;99327.27;109509;1252;59856;-75
2024/03/21 06:50:17;;;;;;;78.90;62.30;;;;;;;5.31;100.00;99328.39;109524;1251;59764;-75
2024/03/21 06:52:45;;;;;;;77.10;63.50;;;;;;;5.34;100.00;99331.10;109489;1252;65604;-73
2024/03/21 06:55:12;;;;;;;83.00;62.70;;;;;;;5.43;100.00;99328.64;109552;1251;60087;-75
2024/03/21 06:57:43;;;;;;;79.30;60.20;;;;;;;5.54;100.00;99329.77;109564;1250;62515;-73
2024/03/21 07:00:13;;;;;;;76.70;60.40;;;;;;;5.63;100.00;99332.02;109497;1251;59855;-74
2024/03/21 07:02:40;;;;;;;72.10;55.80;;;;;;;5.77;100.00;99332.00;109509;1251;59864;-72
2024/03/21 07:05:10;;;;;;;81.10;60.30;;;;;;;5.92;100.00;99331.70;109548;1251;66901;-73
2024/03/21 07:07:36;;;;;;;;;;;;;;;6.06;100.00;99333.77;109535;1251;60248;-74
2024/03/21 07:10:03;;;;;;;75.80;56.90;;;;;;;6.18;100.00;99336.81;109515;1251;59985;-72
2024/03/21 07:12:31;;;;;;;71.20;56.40;;;;;;;6.29;100.00;99333.67;109525;1251;59917;-73
2024/03/21 07:14:57;;;;;;;76.20;57.00;;;;;;;6.42;100.00;99334.71;109551;1251;59755;-74
2024/03/21 07:17:24;;;;;;;67.80;52.50;;;;;;;6.55;100.00;99331.80;109517;1251;59766;-73
2024/03/21 07:19:50;;;;;;;69.50;53.80;;;;;;;6.72;100.00;99332.98;109550;1251;59793;-74
2024/03/21 07:22:17;;;;;;;65.00;52.80;;;;;;;6.89;100.00;99329.04;109499;1251;60230;-72
2024/03/21 07:24:43;;;;;;;64.40;51.50;;;;;;;7.00;100.00;99327.45;109510;1251;59835;-72
2024/03/21 07:27:10;;;;;;;63.30;51.50;;;;;;;7.09;100.00;99325.27;109534;1251;59832;-75
2024/03/21 07:29:36;;;;;;;67.40;52.80;;;;;;;7.20;100.00;99323.13;109518;1251;59838;-76
2024/03/21 07:32:07;;;;;;;67.60;51.90;;;;;;;7.36;100.00;99318.33;109564;1250;59789;-74
2024/03/21 07:34:35;;;;;;;65.50;52.60;;;;;;;7.48;100.00;99312.58;109498;1251;62534;-74
2024/03/21 07:37:04;;;;;;;70.80;51.70;;;;;;;7.63;100.00;99310.42;109544;1251;59779;-73
2024/03/21 07:39:31;;;;;;;68.60;51.90;;;;;;;7.76;100.00;99314.92;109516;1251;59766;-74
2024/03/21 07:41:59;;;;;;;64.90;50.10;;;;;;;7.85;100.00;99316.05;109530;1251;66860;-73
2024/03/21 07:44:26;;;;;;;70.00;51.30;;;;;;;7.98;100.00;99314.31;109542;1251;59919;-74
2024/03/21 07:46:53;;;;;;;68.50;51.70;;;;;;;8.10;100.00;99317.27;109525;1251;64061;-74
2024/03/21 07:49:19;;;;;;;56.00;45.80;;;;;;;8.18;100.00;99322.19;109530;1251;59788;-73
2024/03/21 07:51:47;;;;;;;57.30;48.00;;;;;;;8.23;100.00;99325.78;109469;1251;59713;-73
2024/03/21 07:54:14;;;;;;;60.20;48.30;;;;;;;8.30;100.00;99324.91;109209;1251;65559;-74
2024/03/21 07:56:40;;;;;;;63.80;49.10;;;;;;;8.43;100.00;99324.73;109547;1251;61031;-73
2024/03/21 07:59:07;;;;;;;56.40;45.60;;;;;;;8.60;100.00;99325.33;109363;1251;63844;-73
2024/03/21 08:01:34;;;;;;;61.80;49.50;;;;;;;8.67;100.00;99319.75;109550;1250;60158;-73
2024/03/21 08:04:03;;;;;;;61.40;49.40;;;;;;;8.74;100.00;99313.92;109517;1251;59848;-73
2024/03/21 08:06:30;;;;;;;61.70;50.40;;;;;;;8.84;100.00;99313.20;109531;1250;66660;-74
2024/03/21 08:08:57;;;;;;;57.30;48.50;;;;;;;8.95;100.00;99313.63;109536;1251;59729;-74
2024/03/21 08:11:24;;;;;;;55.60;46.10;;;;;;;9.05;99.96;99313.29;109497;1251;63849;-72
2024/03/21 08:13:50;;;;;;;60.60;47.30;;;;;;;9.10;99.56;99315.67;109497;1251;59781;-74
2024/03/21 08:16:16;;;;;;;57.10;47.50;;;;;;;9.11;98.46;99317.87;109544;1251;60152;-74
2024/03/21 08:18:46;;;;;;;58.60;47.30;;;;;;;9.14;97.83;99315.41;109567;1251;59939;-74
2024/03/21 08:21:14;;;;;;;56.50;45.50;;;;;;;9.21;97.73;99313.92;109389;1251;60222;-74
2024/03/21 08:23:40;;;;;;;53.60;44.80;;;;;;;9.33;97.11;99314.34;109557;1251;63750;-73
2024/03/21 08:26:07;;;;;;;56.70;46.70;;;;;;;9.50;96.45;99315.50;109502;1251;59806;-72
2024/03/21 08:28:33;;;;;;;56.00;44.60;;;;;;;9.59;94.69;99318.87;109540;1251;59807;-74
2024/03/21 08:30:59;;;;;;;54.70;42.90;;;;;;;9.62;93.45;99320.11;109561;1250;59810;-73
2024/03/21 08:33:26;;;;;;;48.40;38.80;;;;;;;9.67;93.28;99317.73;109509;1251;59747;-73
2024/03/21 08:35:52;;;;;;;45.00;38.50;;;;;;;9.74;92.63;99314.83;109478;1251;59836;-73
2024/03/21 08:38:18;;;;;;;49.40;39.20;;;;;;;9.78;91.70;99317.45;109519;1251;59807;-74
2024/03/21 08:40:52;;;;;;;45.20;37.00;;;;;;;9.80;90.94;99316.95;109293;1251;59878;-73
2024/03/21 08:43:19;;;;;;;44.30;36.50;;;;;;;9.86;90.45;99318.76;109445;1251;65901;-73
2024/03/21 08:45:47;;;;;;;45.00;37.90;;;;;;;9.95;90.23;99318.96;109579;1251;60578;-74
2024/03/21 08:48:15;;;;;;;45.20;36.30;;;;;;;10.08;90.54;99318.67;109276;1251;64117;-73
2024/03/21 08:50:45;;;;;;;47.60;37.70;;;;;;;10.28;89.56;99320.71;109566;1251;59687;-73
2024/03/21 08:53:13;;;;;;;42.40;36.40;;;;;;;10.42;88.37;99318.46;109526;1251;59680;-73
2024/03/21 08:55:40;;;;;;;43.50;35.80;;;;;;;10.54;87.46;99318.43;109533;1251;66815;-74
2024/03/21 08:58:06;;;;;;;43.80;35.50;;;;;;;10.67;87.01;99314.40;109537;1251;59773;-73
2024/03/21 09:00:33;;;;;;;43.40;34.90;;;;;;;10.78;86.43;99314.11;109503;1251;63753;-74
2024/03/21 09:03:00;;;;;;;41.50;34.00;;;;;;;10.92;86.41;99312.48;109553;1251;59788;-73
2024/03/21 09:05:28;;;;;;;44.00;33.30;;;;;;;11.01;84.97;99311.39;109597;1251;59768;-74
2024/03/21 09:07:54;;;;;;;42.90;32.90;;;;;;;11.11;83.79;99314.33;109512;1251;65845;-73
2024/03/21 09:10:21;;;;;;;39.40;32.30;;;;;;;11.17;82.59;99314.82;109555;1251;59870;-72
2024/03/21 09:12:47;;;;;;;45.30;34.10;;;;;;;11.24;82.10;99310.11;109539;1251;59878;-74
2024/03/21 09:15:16;;;;;;;38.50;33.20;;;;;;;11.35;81.57;99302.99;109580;1251;59766;-74
2024/03/21 09:17:43;;;;;;;38.10;33.50;;;;;;;11.49;81.17;99296.72;109533;1251;59748;-73
2024/03/21 09:20:09;;;;;;;40.10;32.20;;;;;;;11.66;81.32;99293.30;109557;1251;66880;-73
2024/03/21 09:22:36;;;;;;;41.70;34.30;;;;;;;11.81;80.82;99288.90;109531;1250;59790;-73
2024/03/21 09:25:03;;;;;;;37.60;30.90;;;;;;;11.92;80.38;99286.60;109574;1251;62520;-73
2024/03/21 09:27:30;;;;;;;37.90;29.90;;;;;;;12.01;79.95;99288.65;109446;1251;60220;-73
2024/03/21 09:29:56;;;;;;;37.00;29.30;;;;;;;12.04;78.56;99291.80;109592;1251;59981;-73
2024/03/21 09:32:22;;;;;;;38.00;30.00;;;;;;;12.00;76.91;99289.58;109614;1251;59908;-74
2024/03/21 09:34:52;;;;;;;37.90;30.80;;;;;;;12.00;76.62;99288.35;109306;1251;59959;-73
2024/03/21 09:37:19;;;;;;;36.80;31.20;;;;;;;12.06;76.51;99284.21;109585;1251;64064;-75
2024/03/21 09:39:46;;;;;;;37.70;31.50;;;;;;;12.13;76.43;99280.70;109534;1251;59841;-74
2024/03/21 09:42:16;;;;;;;40.90;33.40;;;;;;;12.30;76.89;99279.39;109547;1251;59736;-73
2024/03/21 09:44:45;;;;;;;;;;;;;;;12.52;77.07;99280.70;109576;1251;66772;-74
2024/03/21 09:47:12;;;;;;;37.80;32.50;;;;;;;12.71;76.79;99280.06;109533;1251;60384;-74
2024/03/21 09:49:39;;;;;;;37.10;31.60;;;;;;;12.82;74.82;99275.19;109532;1251;64084;-73
2024/03/21 09:52:07;;;;;;;37.80;30.80;;;;;;;12.74;73.25;99275.90;109512;1251;59741;-73
2024/03/21 09:54:35;;;;;;;39.20;32.10;;;;;;;12.61;72.18;99274.70;109552;1251;59827;-73
2024/03/21 09:57:03;;;;;;;40.20;33.50;;;;;;;12.59;72.87;99276.08;109570;1251;66408;-72
2024/03/21 09:59:30;;;;;;;37.90;31.40;;;;;;;12.71;73.24;99273.11;109574;1251;60113;-73
2024/03/21 10:01:57;;;;;;;40.60;32.30;;;;;;;12.90;73.58;99269.21;109453;1251;144168;-74
2024/03/21 10:04:23;;;;;;;36.40;32.20;;;;;;;13.04;72.10;99268.23;109360;1251;59904;-74
2024/03/21 10:06:50;;;;;;;41.00;31.90;;;;;;;13.06;71.79;99268.30;109527;1251;59819;-73
2024/03/21 10:09:17;;;;;;;40.00;30.50;;;;;;;13.05;71.80;99263.14;109566;1251;66112;-73
2024/03/21 10:11:43;;;;;;;37.30;29.70;;;;;;;13.10;71.98;99259.39;109563;1250;59686;-73
2024/03/21 10:14:14;;;;;;;35.10;29.30;;;;;;;13.23;72.37;99258.11;109505;1251;59825;-74
2024/03/21 10:16:41;;;;;;;36.30;30.50;;;;;;;13.35;72.37;99250.09;109568;1251;59824;-74
2024/03/21 10:19:13;;;;;;;30.40;26.10;;;;;;;13.44;71.40;99252.79;109517;1251;59675;-73
2024/03/21 10:21:39;;;;;;;36.50;26.80;;;;;;;13.44;69.64;99249.40;109569;1250;66530;-74
2024/03/21 10:24:06;;;;;;;33.70;26.50;;;;;;;13.41;69.05;99248.91;109517;1251;59795;-74
2024/03/21 10:26:33;;;;;;;29.80;24.10;;;;;;;13.46;68.38;99244.27;109528;1251;63766;-75
2024/03/21 10:29:00;;;;;;;30.60;23.90;;;;;;;13.50;65.66;99242.05;109521;1251;59815;-72
2024/03/21 10:31:26;;;;;;;33.00;25.90;;;;;;;13.39;64.41;99243.55;109541;1251;59824;-74
2024/03/21 10:33:54;;;;;;;31.80;25.50;;;;;;;13.46;66.43;99243.21;109574;1251;59869;-74
2024/03/21 10:36:21;;;;;;;34.60;25.80;;;;;;;13.63;65.67;99239.39;109526;1251;59759;-73
2024/03/21 10:38:48;;;;;;;30.80;24.70;;;;;;;13.72;64.85;99237.30;109556;1251;62828;-74
2024/03/21 10:41:21;;;;;;;32.30;24.60;;;;;;;13.79;65.46;99238.23;109567;1250;59749;-73
2024/03/21 10:44:00;;;;;;;28.70;23.90;;;;;;;13.95;64.54;99238.39;109534;1251;59708;-73
2024/03/21 10:46:27;;;;;;;31.50;25.40;;;;;;;14.04;63.77;99235.95;109578;1250;66960;-76
2024/03/21 10:48:57;;;;;;;30.60;24.90;;;;;;;14.09;63.57;99228.20;109238;1255;60790;-74
2024/03/21 10:51:23;;;;;;;33.00;24.30;;;;;;;14.16;63.40;99225.00;109189;1255;64183;-74
2024/03/21 10:53:57;;;;;;;30.30;24.20;;;;;;;14.26;63.53;99220.85;109213;1254;59949;-73
2024/03/21 10:56:29;;;;;;;29.10;22.70;;;;;;;14.39;63.40;99220.15;109225;1254;59884;-74
2024/03/21 10:58:59;;;;;;;27.80;23.00;;;;;;;14.44;62.80;99221.85;109211;1255;66991;-74
2024/03/21 11:01:39;;;;;;;24.80;18.90;;;;;;;14.44;62.13;99219.53;109192;1255;60285;-73
2024/03/21 11:04:09;;;;;;;19.40;15.90;;;;;;;14.39;56.31;99216.56;109226;1254;63115;-73
2024/03/21 11:06:45;;;;;;;19.80;17.40;;;;;;;14.26;54.31;99214.00;109176;1254;59851;-73
2024/03/21 11:09:14;;;;;;;21.80;17.20;;;;;;;14.27;55.20;99207.52;109191;1255;59739;-74